createdAt,value
2023-01-20T00:01:01.161Z,14.02
2023-01-20T00:03:28.103Z,11.73
2023-01-20T00:05:55.207Z,12.77
2023-01-20T00:08:22.163Z,15.93
2023-01-20T00:10:51.502Z,13.52
2023-01-20T00:13:18.423Z,10.70
2023-01-20T00:15:47.303Z,12.32
2023-01-20T00:18:14.289Z,11.70
2023-01-20T00:20:41.191Z,12.15
2023-01-20T00:23:08.304Z,12.63
2023-01-20T00:25:35.197Z,14.65
2023-01-20T00:28:02.524Z,12.13
2023-01-20T00:30:29.729Z,12.15
2023-01-20T00:32:56.668Z,12.15
2023-01-20T00:35:23.567Z,10.60
2023-01-20T00:37:50.687Z,11.32
2023-01-20T00:40:17.751Z,13.07
2023-01-20T00:42:44.658Z,12.85
2023-01-20T00:45:11.848Z,12.90
2023-01-20T00:47:39.149Z,11.48
2023-01-20T00:50:06.094Z,14.73
2023-01-20T00:52:32.981Z,12.55
2023-01-20T00:55:02.985Z,13.48
2023-01-20T00:57:30.054Z,12.43
2023-01-20T00:59:57.021Z,13.68
2023-01-20T01:02:24.017Z,12.40
2023-01-20T01:04:50.967Z,11.38
2023-01-20T01:07:17.860Z,12.75
2023-01-20T01:09:44.773Z,12.38
2023-01-20T01:12:11.669Z,11.45
2023-01-20T01:14:38.964Z,13.13
2023-01-20T01:17:05.949Z,14.95
2023-01-20T01:19:33.103Z,15.50
2023-01-20T01:22:00.658Z,12.52
2023-01-20T01:24:27.601Z,12.02
2023-01-20T01:26:54.506Z,13.80
2023-01-20T01:29:21.403Z,12.07
2023-01-20T01:31:48.344Z,14.82
2023-01-20T01:34:15.434Z,15.50
2023-01-20T01:36:42.427Z,12.75
2023-01-20T01:39:09.511Z,14.95
2023-01-20T01:41:36.405Z,15.80
2023-01-20T01:44:03.490Z,14.75
2023-01-20T01:46:30.470Z,15.63
2023-01-20T01:48:58.527Z,14.35
2023-01-20T01:51:25.623Z,15.90
2023-01-20T01:53:52.669Z,13.35
2023-01-20T01:56:19.703Z,14.93
2023-01-20T01:58:46.640Z,13.77
2023-01-20T02:01:16.482Z,15.07
2023-01-20T02:03:47.531Z,13.80
2023-01-20T02:06:14.464Z,16.40
2023-01-20T02:08:41.438Z,16.20
2023-01-20T02:11:08.353Z,14.35
2023-01-20T02:13:35.271Z,15.70
2023-01-20T02:16:03.483Z,13.70
2023-01-20T02:18:30.459Z,16.73
2023-01-20T02:20:57.417Z,16.40
2023-01-20T02:23:24.347Z,17.15
2023-01-20T02:25:51.285Z,12.82
2023-01-20T02:28:18.191Z,16.98
2023-01-20T02:30:45.175Z,14.50
2023-01-20T02:33:12.090Z,17.33
2023-01-20T02:35:38.985Z,14.52
2023-01-20T02:38:05.878Z,19.42
2023-01-20T02:40:32.797Z,16.98
2023-01-20T02:42:59.705Z,14.73
2023-01-20T02:45:26.656Z,19.23
2023-01-20T02:47:53.560Z,15.80
2023-01-20T02:50:20.477Z,18.88
2023-01-20T02:52:47.364Z,16.40
2023-01-20T02:55:14.546Z,17.17
2023-01-20T02:57:41.538Z,19.17
2023-01-20T03:00:08.444Z,18.55
2023-01-20T03:02:35.335Z,19.75
2023-01-20T03:05:02.284Z,18.98
2023-01-20T03:07:29.185Z,19.35
2023-01-20T03:09:56.118Z,19.92
2023-01-20T03:12:23.023Z,22.60
2023-01-20T03:14:49.937Z,20.00
2023-01-20T03:17:16.826Z,26.02
2023-01-20T03:19:43.742Z,20.45
2023-01-20T03:22:10.668Z,20.08
2023-01-20T03:24:37.562Z,22.52
2023-01-20T03:27:04.455Z,22.88
2023-01-20T03:29:31.368Z,26.63
2023-01-20T03:31:58.272Z,24.17
2023-01-20T03:34:25.199Z,25.13
2023-01-20T03:36:52.138Z,26.27
2023-01-20T03:39:19.135Z,23.25
2023-01-20T03:41:46.044Z,22.70
2023-01-20T03:44:12.984Z,25.98
2023-01-20T03:46:40.130Z,23.60
2023-01-20T03:49:07.016Z,26.42
2023-01-20T03:51:33.948Z,25.17
2023-01-20T03:54:00.856Z,24.33
2023-01-20T03:56:27.778Z,28.25
2023-01-20T03:58:54.710Z,26.42
2023-01-20T04:01:21.737Z,25.75
2023-01-20T04:03:48.667Z,26.30
2023-01-20T04:06:15.652Z,28.92
2023-01-20T04:08:42.566Z,24.65
2023-01-20T04:11:09.485Z,28.73
2023-01-20T04:13:36.406Z,29.10
2023-01-20T04:16:03.583Z,27.45
2023-01-20T04:18:30.516Z,25.38
2023-01-20T04:20:57.613Z,26.80
2023-01-20T04:23:24.515Z,28.52
2023-01-20T04:25:51.422Z,28.75
2023-01-20T04:28:18.337Z,26.25
2023-01-20T04:30:45.610Z,27.55
2023-01-20T04:33:12.630Z,27.02
2023-01-20T04:35:39.543Z,29.17
2023-01-20T04:38:06.452Z,29.77
2023-01-20T04:40:33.407Z,28.13
2023-01-20T04:43:00.314Z,26.50
2023-01-20T04:45:27.218Z,25.30
2023-01-20T04:47:54.184Z,25.95
2023-01-20T04:50:21.148Z,29.15
2023-01-20T04:52:48.057Z,27.13
2023-01-20T04:55:15.193Z,27.10
2023-01-20T04:57:42.232Z,27.05
2023-01-20T05:00:09.115Z,24.20
2023-01-20T05:02:36.045Z,26.52
2023-01-20T05:05:02.983Z,26.77
2023-01-20T05:07:29.876Z,26.58
2023-01-20T05:09:56.786Z,23.92
2023-01-20T05:12:23.690Z,27.60
2023-01-20T05:14:50.581Z,33.70
2023-01-20T05:17:17.477Z,25.50
2023-01-20T05:19:44.419Z,26.65
2023-01-20T05:22:11.355Z,27.58
2023-01-20T05:24:38.256Z,27.85
2023-01-20T05:27:05.181Z,28.35
2023-01-20T05:29:32.092Z,28.15
2023-01-20T05:31:59.018Z,28.38
2023-01-20T05:34:25.920Z,28.45
2023-01-20T05:36:52.840Z,29.13
2023-01-20T05:39:19.718Z,29.45
2023-01-20T05:41:46.648Z,28.73
2023-01-20T05:44:13.531Z,28.45
2023-01-20T05:46:40.501Z,31.40
2023-01-20T05:49:08.522Z,30.38
2023-01-20T05:51:35.449Z,29.83
2023-01-20T05:54:02.319Z,28.65
2023-01-20T05:56:29.224Z,29.90
2023-01-20T05:58:56.183Z,30.58
2023-01-20T06:01:23.105Z,29.40
2023-01-20T06:03:50.058Z,30.40
2023-01-20T06:06:16.993Z,34.30
2023-01-20T06:08:43.896Z,30.45
2023-01-20T06:11:11.000Z,30.77
2023-01-20T06:13:37.906Z,32.92
2023-01-20T06:16:07.283Z,34.75
2023-01-20T06:18:34.351Z,31.27
2023-01-20T06:21:01.293Z,32.08
2023-01-20T06:23:28.259Z,30.98
2023-01-20T06:25:55.177Z,29.75
2023-01-20T06:28:22.075Z,34.10
2023-01-20T06:30:49.066Z,33.47
2023-01-20T06:33:16.073Z,32.47
2023-01-20T06:35:42.976Z,30.60
2023-01-20T06:38:09.876Z,34.22
2023-01-20T06:40:36.785Z,30.17
2023-01-20T06:43:04.700Z,32.20
2023-01-20T06:45:31.630Z,33.67
2023-01-20T06:47:58.521Z,33.92
2023-01-20T06:50:25.463Z,31.75
2023-01-20T06:52:52.391Z,34.30
2023-01-20T06:55:19.275Z,31.67
2023-01-20T06:57:48.077Z,35.67
2023-01-20T07:00:14.973Z,37.15
2023-01-20T07:02:41.920Z,36.17
2023-01-20T07:05:08.826Z,34.42
2023-01-20T07:07:35.726Z,32.15
2023-01-20T07:10:02.617Z,33.42
2023-01-20T07:12:29.521Z,35.78
2023-01-20T07:14:56.401Z,34.60
2023-01-20T07:17:23.350Z,35.45
2023-01-20T07:19:50.275Z,32.67
2023-01-20T07:22:17.195Z,33.92
2023-01-20T07:24:44.098Z,32.22
2023-01-20T07:27:11.024Z,32.15
2023-01-20T07:29:37.931Z,34.55
2023-01-20T07:32:04.910Z,34.38
2023-01-20T07:34:31.812Z,37.08
2023-01-20T07:37:00.327Z,36.80
2023-01-20T07:39:27.221Z,36.58
2023-01-20T07:41:54.147Z,33.63
2023-01-20T07:44:22.085Z,34.15
2023-01-20T07:46:48.987Z,33.47
2023-01-20T07:49:15.884Z,33.10
2023-01-20T07:51:42.787Z,34.63
2023-01-20T07:54:09.673Z,35.22
2023-01-20T07:56:36.578Z,34.22
2023-01-20T07:59:03.475Z,37.58
2023-01-20T08:01:30.677Z,35.17
2023-01-20T08:03:57.667Z,36.35
2023-01-20T08:06:24.639Z,33.55
2023-01-20T08:08:51.581Z,35.92
2023-01-20T08:11:18.486Z,35.80
2023-01-20T08:13:45.404Z,34.85
2023-01-20T08:16:12.441Z,34.25
2023-01-20T08:18:39.587Z,32.85
2023-01-20T08:21:06.553Z,34.65
2023-01-20T08:23:33.470Z,34.15
2023-01-20T08:26:00.381Z,36.20
2023-01-20T08:28:28.150Z,35.70
2023-01-20T08:30:55.137Z,32.63
2023-01-20T08:33:22.092Z,33.78
2023-01-20T08:35:49.038Z,34.08
2023-01-20T08:38:16.005Z,30.80
2023-01-20T08:40:42.919Z,35.83
2023-01-20T08:43:09.851Z,38.70
2023-01-20T08:45:37.012Z,38.60
2023-01-20T08:48:03.918Z,34.83
2023-01-20T08:50:30.820Z,33.28
2023-01-20T08:52:57.725Z,32.65
2023-01-20T08:55:24.623Z,33.58
2023-01-20T08:57:51.529Z,30.83
2023-01-20T09:00:18.454Z,30.95
2023-01-20T09:02:45.593Z,28.45
2023-01-20T09:05:12.761Z,32.28
2023-01-20T09:07:39.774Z,30.95
2023-01-20T09:10:06.664Z,29.38
2023-01-20T09:12:33.580Z,33.85
2023-01-20T09:15:03.432Z,30.15
2023-01-20T09:17:34.906Z,31.63
2023-01-20T09:20:01.880Z,28.08
2023-01-20T09:22:28.887Z,32.22
2023-01-20T09:24:55.871Z,30.75
2023-01-20T09:27:22.833Z,30.63
2023-01-20T09:29:49.797Z,31.88
2023-01-20T09:32:16.733Z,32.33
2023-01-20T09:34:43.642Z,32.17
2023-01-20T09:37:10.542Z,34.88
2023-01-20T09:39:37.443Z,31.20
2023-01-20T09:42:04.447Z,30.05
2023-01-20T09:44:31.463Z,29.63
2023-01-20T09:46:58.370Z,31.40
2023-01-20T09:49:25.285Z,31.80
2023-01-20T09:51:52.227Z,34.92
2023-01-20T09:54:19.119Z,29.40
2023-01-20T09:56:46.009Z,30.75
2023-01-20T09:59:12.908Z,30.38
2023-01-20T10:01:39.859Z,33.42
2023-01-20T10:04:06.869Z,30.65
2023-01-20T10:06:33.786Z,31.13
2023-01-20T10:09:05.894Z,30.67
2023-01-20T10:11:33.382Z,32.10
2023-01-20T10:14:00.397Z,26.25
2023-01-20T10:16:27.323Z,27.70
2023-01-20T10:18:54.232Z,31.27
2023-01-20T10:21:21.122Z,29.40
2023-01-20T10:23:48.056Z,26.67
2023-01-20T10:26:14.971Z,32.83
2023-01-20T10:28:41.889Z,28.77
2023-01-20T10:31:09.073Z,30.27
2023-01-20T10:33:36.078Z,27.13
2023-01-20T10:36:02.989Z,28.77
2023-01-20T10:38:30.060Z,31.83
2023-01-20T10:40:56.951Z,29.75
2023-01-20T10:43:23.851Z,29.05
2023-01-20T10:45:50.794Z,27.95
2023-01-20T10:48:17.717Z,28.15
2023-01-20T10:50:44.625Z,27.90
2023-01-20T10:53:13.548Z,29.33
2023-01-20T10:55:40.786Z,26.77
2023-01-20T10:58:07.702Z,25.75
2023-01-20T11:00:34.594Z,30.45
2023-01-20T11:03:01.732Z,30.42
2023-01-20T11:05:28.657Z,30.10
2023-01-20T11:07:55.751Z,26.63
2023-01-20T11:10:25.520Z,26.90
2023-01-20T11:12:52.489Z,25.67
2023-01-20T11:15:19.516Z,26.15
2023-01-20T11:17:47.118Z,26.73
2023-01-20T11:20:14.188Z,26.88
2023-01-20T11:22:44.053Z,24.83
2023-01-20T11:25:11.266Z,26.30
2023-01-20T11:28:39.338Z,25.33
2023-01-20T11:33:32.511Z,24.83
2023-01-20T11:35:59.557Z,26.05
2023-01-20T11:38:26.546Z,24.60
2023-01-20T11:40:53.486Z,27.10
2023-01-20T11:43:20.425Z,27.33
2023-01-20T11:45:47.355Z,29.08
2023-01-20T11:48:16.320Z,25.70
2023-01-20T11:50:43.911Z,23.73
2023-01-20T11:53:10.978Z,23.30
2023-01-20T11:55:37.909Z,24.70
2023-01-20T11:58:04.828Z,24.55
2023-01-20T12:00:31.735Z,25.02
2023-01-20T12:02:58.661Z,25.35
2023-01-20T12:05:25.553Z,23.25
2023-01-20T12:07:52.504Z,23.08
2023-01-20T12:10:19.395Z,25.20
2023-01-20T12:12:48.067Z,26.30
2023-01-20T12:15:14.994Z,25.95
2023-01-20T12:17:41.930Z,25.17
2023-01-20T12:20:08.859Z,23.90
2023-01-20T12:22:35.814Z,24.42
2023-01-20T12:25:02.712Z,26.38
2023-01-20T12:27:30.247Z,25.30
2023-01-20T12:29:57.162Z,26.77
2023-01-20T12:32:24.115Z,26.92
2023-01-20T12:34:52.090Z,23.88
2023-01-20T12:37:18.988Z,25.73
2023-01-20T12:39:45.903Z,26.13
2023-01-20T12:42:12.834Z,28.13
2023-01-20T12:44:39.737Z,25.70
2023-01-20T12:47:06.643Z,29.25
2023-01-20T12:49:33.549Z,24.65
2023-01-20T12:52:00.427Z,26.98
2023-01-20T12:54:32.672Z,26.90
2023-01-20T12:57:12.515Z,27.98
2023-01-20T12:59:39.431Z,27.33
2023-01-20T13:02:06.314Z,27.35
2023-01-20T13:04:33.231Z,26.95
2023-01-20T13:07:00.186Z,24.75
2023-01-20T13:09:27.093Z,26.58
2023-01-20T13:11:53.990Z,25.60
2023-01-20T13:14:20.915Z,28.02
2023-01-20T13:16:47.882Z,29.98
2023-01-20T13:19:14.803Z,26.08
2023-01-20T13:21:41.716Z,24.95
2023-01-20T13:24:08.619Z,29.83
2023-01-20T13:26:35.524Z,23.98
2023-01-20T13:29:02.432Z,26.77
2023-01-20T13:31:29.406Z,27.38
2023-01-20T13:33:56.384Z,28.45
2023-01-20T13:36:26.204Z,27.77
2023-01-20T13:38:53.123Z,26.80
2023-01-20T13:41:20.042Z,24.52
2023-01-20T13:43:46.946Z,23.83
2023-01-20T13:46:13.898Z,28.10
2023-01-20T13:48:40.846Z,27.40
2023-01-20T13:51:08.883Z,26.83
2023-01-20T13:53:35.815Z,25.65
2023-01-20T13:56:02.718Z,25.05
2023-01-20T13:58:29.693Z,25.65
2023-01-20T14:00:56.673Z,24.90
2023-01-20T14:03:23.770Z,26.45
2023-01-20T14:05:50.661Z,27.52
2023-01-20T14:08:17.670Z,26.33
2023-01-20T14:10:45.831Z,25.75
2023-01-20T14:13:12.769Z,28.17
2023-01-20T14:15:39.825Z,25.88
2023-01-20T14:18:06.811Z,27.55
2023-01-20T14:20:33.845Z,24.80
2023-01-20T14:23:00.770Z,29.77
2023-01-20T14:25:27.785Z,27.45
2023-01-20T14:27:54.692Z,28.25
2023-01-20T14:30:21.591Z,27.45
2023-01-20T14:32:48.489Z,26.92
2023-01-20T14:35:15.643Z,26.58
2023-01-20T14:37:42.700Z,26.80
2023-01-20T14:40:09.611Z,24.73
2023-01-20T14:42:36.499Z,26.77
2023-01-20T14:45:03.494Z,27.27
2023-01-20T14:47:30.434Z,24.20
2023-01-20T14:49:57.429Z,28.23
2023-01-20T14:52:24.368Z,26.75
2023-01-20T14:54:51.572Z,30.85
2023-01-20T14:57:18.498Z,25.95
2023-01-20T14:59:45.585Z,25.55
2023-01-20T15:02:12.477Z,27.90
2023-01-20T15:04:42.001Z,28.08
2023-01-20T15:07:08.910Z,27.88
2023-01-20T15:09:35.971Z,25.48
2023-01-20T15:12:02.868Z,26.27
2023-01-20T15:14:29.786Z,29.08
2023-01-20T15:16:56.680Z,25.23
2023-01-20T15:19:23.732Z,24.77
2023-01-20T15:21:50.660Z,27.73
2023-01-20T15:24:17.593Z,23.98
2023-01-20T15:26:44.490Z,26.08
2023-01-20T15:29:11.415Z,28.90
2023-01-20T15:31:38.376Z,26.58
2023-01-20T15:34:05.345Z,25.58
2023-01-20T15:36:32.237Z,25.38
2023-01-20T15:38:59.151Z,28.55
2023-01-20T15:41:27.119Z,26.40
2023-01-20T15:43:54.029Z,28.20
2023-01-20T15:46:20.988Z,25.23
2023-01-20T15:48:47.995Z,26.15
2023-01-20T15:51:14.945Z,27.48
2023-01-20T15:53:41.889Z,27.30
2023-01-20T15:56:08.772Z,28.60
2023-01-20T15:58:35.688Z,29.13
2023-01-20T16:01:02.580Z,28.98
2023-01-20T16:03:29.493Z,26.17
2023-01-20T16:05:56.384Z,26.73
2023-01-20T16:08:23.290Z,26.63
2023-01-20T16:10:50.205Z,29.35
2023-01-20T16:13:18.164Z,28.77
2023-01-20T16:15:45.101Z,28.17
2023-01-20T16:18:11.990Z,27.52
2023-01-20T16:20:38.911Z,26.75
2023-01-20T16:23:05.828Z,27.67
2023-01-20T16:25:32.727Z,26.45
2023-01-20T16:27:59.683Z,27.95
2023-01-20T16:30:26.843Z,28.58
2023-01-20T16:32:53.748Z,24.52
2023-01-20T16:35:22.996Z,26.98
2023-01-20T16:37:50.113Z,27.80
2023-01-20T16:40:17.278Z,27.20
2023-01-20T16:42:44.383Z,28.23
2023-01-20T16:45:11.295Z,30.50
2023-01-20T16:47:38.187Z,30.25
2023-01-20T16:50:05.089Z,27.08
2023-01-20T16:52:31.973Z,25.30
2023-01-20T16:54:59.165Z,29.83
2023-01-20T16:57:26.085Z,28.20
2023-01-20T16:59:53.321Z,11.45
2023-01-20T17:02:20.349Z,16.98
2023-01-20T17:04:47.418Z,13.40
2023-01-20T17:07:14.352Z,25.10
2023-01-20T17:09:41.373Z,24.98
2023-01-20T17:12:08.412Z,29.45
2023-01-20T17:14:42.349Z,28.98
2023-01-20T17:17:09.613Z,26.75
2023-01-20T17:19:39.225Z,29.85
2023-01-20T17:22:06.275Z,27.45
2023-01-20T17:24:33.298Z,28.63
2023-01-20T17:35:30.237Z,26.00
2023-01-20T17:37:57.160Z,25.43
2023-01-20T17:40:25.446Z,26.00
2023-01-20T17:42:52.384Z,26.88
2023-01-20T17:50:37.749Z,28.65
2023-01-20T17:56:06.767Z,31.17
2023-01-20T17:58:38.078Z,26.42
2023-01-20T18:01:05.015Z,29.10
2023-01-20T18:03:31.917Z,32.20
2023-01-20T18:05:58.828Z,26.73
2023-01-20T18:08:38.860Z,27.90
2023-01-20T18:11:05.929Z,27.42
2023-01-20T18:13:32.833Z,26.15
2023-01-20T18:15:59.757Z,29.92
2023-01-20T18:18:26.670Z,30.08
2023-01-20T18:20:53.606Z,30.77
2023-01-20T18:23:20.507Z,35.20
2023-01-20T18:25:47.447Z,36.63
2023-01-20T18:28:14.340Z,39.85
2023-01-20T18:30:41.617Z,34.50
2023-01-20T18:33:08.706Z,33.05
2023-01-20T18:35:35.939Z,32.90
2023-01-20T18:38:02.862Z,30.23
2023-01-20T18:40:29.776Z,31.20
2023-01-20T18:42:56.702Z,31.15
2023-01-20T18:45:23.652Z,32.47
2023-01-20T18:47:50.659Z,31.63
2023-01-20T18:50:17.911Z,31.15
2023-01-20T18:52:44.977Z,29.67
2023-01-20T18:55:11.937Z,32.15
2023-01-20T18:57:38.838Z,28.48
2023-01-20T19:00:05.764Z,29.85
2023-01-20T19:02:33.077Z,31.02
2023-01-20T19:05:00.046Z,30.77
2023-01-20T19:07:26.944Z,32.25
2023-01-20T19:09:53.921Z,30.25
2023-01-20T19:12:20.822Z,30.63
2023-01-20T19:14:47.716Z,31.05
2023-01-20T19:17:14.607Z,33.33
2023-01-20T19:19:41.540Z,27.50
2023-01-20T19:22:08.663Z,28.58
2023-01-20T19:24:35.628Z,31.52
2023-01-20T19:27:02.571Z,31.98
2023-01-20T19:29:29.647Z,29.13
2023-01-20T19:31:56.647Z,27.98
2023-01-20T19:34:23.776Z,31.45
2023-01-20T19:36:50.720Z,29.13
2023-01-20T19:39:17.783Z,29.10
2023-01-20T19:41:44.719Z,32.17
2023-01-20T19:44:11.832Z,29.15
2023-01-20T19:46:39.010Z,30.10
2023-01-20T19:49:06.673Z,30.23
2023-01-20T19:51:33.715Z,30.17
2023-01-20T19:54:01.004Z,31.52
2023-01-20T19:56:28.260Z,34.65
2023-01-20T19:58:55.240Z,27.38
2023-01-20T20:01:22.160Z,31.35
2023-01-20T20:03:49.239Z,31.45
2023-01-20T20:06:16.234Z,31.00
2023-01-20T20:08:43.139Z,31.55
2023-01-20T20:11:10.269Z,30.67
2023-01-20T20:13:37.171Z,28.33
2023-01-20T20:16:04.227Z,30.50
2023-01-20T20:18:31.533Z,27.02
2023-01-20T20:20:58.591Z,33.45
2023-01-20T20:23:25.582Z,29.52
2023-01-20T20:25:52.525Z,33.58
2023-01-20T20:28:19.459Z,33.42
2023-01-20T20:30:46.432Z,31.98
2023-01-20T20:33:13.479Z,30.73
2023-01-20T20:35:40.503Z,30.63
2023-01-20T20:38:07.411Z,31.80
2023-01-20T20:40:34.345Z,28.40
2023-01-20T20:43:01.274Z,28.23
2023-01-20T20:45:28.215Z,26.25
2023-01-20T20:47:55.170Z,31.98
2023-01-20T20:50:22.290Z,30.83
2023-01-20T20:52:49.180Z,29.70
2023-01-20T20:55:16.642Z,31.15
2023-01-20T20:57:43.531Z,28.58
2023-01-20T21:00:10.456Z,32.28
2023-01-20T21:02:37.654Z,30.10
2023-01-20T21:05:04.621Z,30.92
2023-01-20T21:07:31.551Z,34.38
2023-01-20T21:09:58.597Z,33.10
2023-01-20T21:12:25.588Z,29.73
2023-01-20T21:14:52.471Z,29.17
2023-01-20T21:17:19.377Z,32.65
2023-01-20T21:19:46.634Z,31.25
2023-01-20T21:22:13.997Z,30.92
2023-01-20T21:24:40.898Z,34.47
2023-01-20T21:27:07.923Z,33.42
2023-01-20T21:29:34.845Z,31.08
2023-01-20T21:32:01.771Z,31.70
2023-01-20T21:34:28.659Z,32.17
2023-01-20T21:36:55.590Z,32.67
2023-01-20T21:39:22.516Z,33.58
2023-01-20T21:41:49.420Z,35.38
2023-01-20T21:44:16.311Z,34.92
2023-01-20T21:46:43.300Z,36.00
2023-01-20T21:49:16.605Z,33.35
2023-01-20T21:51:45.120Z,33.85
2023-01-20T21:54:12.096Z,32.58
2023-01-20T21:56:39.921Z,33.60
2023-01-20T21:59:06.901Z,33.88
2023-01-20T22:01:33.802Z,34.05
2023-01-20T22:04:00.688Z,33.60
2023-01-20T22:06:27.908Z,33.08
2023-01-20T22:08:54.855Z,33.33
2023-01-20T22:11:21.845Z,33.63
2023-01-20T22:13:48.944Z,30.02
2023-01-20T22:16:15.910Z,33.15
2023-01-20T22:18:43.938Z,33.40
2023-01-20T22:21:11.017Z,32.28
2023-01-20T22:23:38.007Z,33.15
2023-01-20T22:26:05.969Z,33.38
2023-01-20T22:29:04.008Z,33.55
2023-01-20T22:34:26.060Z,32.22
2023-01-20T22:40:13.469Z,34.50
2023-01-20T22:45:27.006Z,36.08
2023-01-20T22:47:57.424Z,39.28
2023-01-20T22:50:27.523Z,35.17
2023-01-20T22:58:34.473Z,34.35
2023-01-20T23:01:01.594Z,37.30
2023-01-20T23:03:28.592Z,34.25
2023-01-20T23:08:46.790Z,35.90
2023-01-20T23:11:13.715Z,33.35
2023-01-20T23:13:40.794Z,33.30
2023-01-20T23:18:51.968Z,34.80
2023-01-20T23:21:18.928Z,32.58
2023-01-20T23:23:46.080Z,31.42
2023-01-20T23:26:12.986Z,33.63
2023-01-20T23:28:42.187Z,36.47
2023-01-20T23:31:09.562Z,32.28
2023-01-20T23:33:36.715Z,34.58
2023-01-20T23:36:03.661Z,32.72
2023-01-20T23:38:30.920Z,33.22
2023-01-20T23:40:57.937Z,33.72
2023-01-20T23:43:24.858Z,34.60
2023-01-20T23:45:51.799Z,35.30
2023-01-20T23:59:43.530Z,33.95
